createdAt,value
2022-12-14T00:03:37.968Z,7.87
2022-12-14T00:07:46.767Z,9.63
2022-12-14T00:12:16.286Z,8.40
2022-12-14T00:16:27.417Z,5.33
2022-12-14T00:20:36.000Z,5.30
2022-12-14T00:24:44.631Z,6.23
2022-12-14T00:29:12.715Z,5.40
2022-12-14T00:33:21.343Z,6.43
2022-12-14T00:37:29.859Z,6.97
2022-12-14T00:41:38.429Z,6.10
2022-12-14T00:45:47.617Z,5.17
2022-12-14T00:49:56.173Z,6.20
2022-12-14T00:54:04.895Z,5.57
2022-12-14T00:58:15.218Z,7.47
2022-12-14T01:02:23.943Z,6.80
2022-12-14T01:06:32.628Z,4.97
2022-12-14T01:10:41.255Z,5.77
2022-12-14T01:14:50.719Z,7.33
2022-12-14T01:19:01.812Z,5.07
2022-12-14T01:23:10.385Z,5.60
2022-12-14T01:27:38.399Z,5.37
2022-12-14T01:31:48.692Z,5.53
2022-12-14T01:36:20.750Z,4.77
2022-12-14T01:40:29.375Z,5.53
2022-12-14T01:44:41.005Z,7.33
2022-12-14T01:48:52.570Z,5.53
2022-12-14T01:53:21.781Z,5.80
2022-12-14T01:57:33.483Z,6.83
2022-12-14T02:01:42.740Z,6.60
2022-12-14T02:05:59.998Z,7.03
2022-12-14T02:10:09.939Z,5.57
2022-12-14T02:14:18.542Z,7.70
2022-12-14T02:18:29.637Z,7.73
2022-12-14T02:22:59.148Z,6.57
2022-12-14T02:27:31.473Z,7.57
2022-12-14T02:32:02.692Z,6.53
2022-12-14T02:36:26.064Z,6.90
2022-12-14T02:40:55.833Z,7.10
2022-12-14T02:45:25.257Z,6.80
2022-12-14T02:49:40.078Z,8.00
2022-12-14T02:54:06.984Z,5.67
2022-12-14T02:58:39.221Z,7.80
2022-12-14T03:02:49.975Z,6.30
2022-12-14T03:07:02.728Z,5.70
2022-12-14T03:11:14.485Z,8.00
2022-12-14T03:15:26.710Z,6.20
2022-12-14T03:19:41.413Z,8.10
2022-12-14T03:23:53.009Z,7.07
2022-12-14T03:28:10.552Z,5.67
2022-12-14T03:32:21.993Z,6.83
2022-12-14T03:36:52.931Z,6.13
2022-12-14T03:41:25.520Z,6.83
2022-12-14T03:45:42.777Z,6.03
2022-12-14T03:50:15.982Z,5.80
2022-12-14T03:55:01.000Z,6.57
2022-12-14T03:59:33.178Z,6.23
2022-12-14T04:03:56.656Z,6.20
2022-12-14T04:08:35.091Z,8.20
2022-12-14T04:13:02.964Z,6.47
2022-12-14T04:17:50.196Z,5.53
2022-12-14T04:22:01.794Z,5.60
2022-12-14T04:26:13.497Z,5.87
2022-12-14T04:30:22.227Z,5.90
2022-12-14T04:34:34.237Z,5.00
2022-12-14T04:38:44.487Z,5.50
2022-12-14T04:42:59.070Z,5.70
2022-12-14T04:47:11.077Z,5.03
2022-12-14T04:51:34.824Z,5.77
2022-12-14T04:55:46.561Z,5.03
2022-12-14T04:59:57.914Z,5.10
2022-12-14T05:04:34.134Z,8.40
2022-12-14T05:08:45.729Z,6.20
2022-12-14T05:13:29.018Z,6.17
2022-12-14T05:17:40.149Z,5.50
2022-12-14T05:21:48.793Z,6.10
2022-12-14T05:25:57.373Z,7.27
2022-12-14T05:30:06.928Z,5.00
2022-12-14T05:34:15.501Z,6.17
2022-12-14T05:38:24.222Z,5.67
2022-12-14T05:42:32.953Z,4.80
2022-12-14T05:46:41.543Z,4.60
2022-12-14T05:50:50.278Z,5.10
2022-12-14T05:55:03.856Z,4.77
2022-12-14T05:59:09.208Z,5.93
2022-12-14T06:03:37.190Z,5.30
2022-12-14T06:07:45.818Z,5.07
2022-12-14T06:11:54.759Z,4.00
2022-12-14T06:16:24.482Z,5.27
2022-12-14T06:20:33.212Z,4.83
2022-12-14T06:24:41.837Z,5.40
2022-12-14T06:28:50.466Z,4.53
2022-12-14T06:32:58.998Z,5.83
2022-12-14T06:37:07.623Z,5.53
2022-12-14T06:41:16.290Z,4.00
2022-12-14T06:45:25.021Z,4.60
2022-12-14T06:49:33.797Z,5.00
2022-12-14T06:53:42.374Z,5.40
2022-12-14T06:57:54.775Z,4.97
2022-12-14T07:02:03.417Z,5.47
2022-12-14T07:06:12.122Z,6.40
2022-12-14T07:10:20.764Z,6.43
2022-12-14T07:14:29.374Z,6.40
2022-12-14T07:18:38.003Z,5.70
2022-12-14T07:23:06.088Z,7.90
2022-12-14T07:27:33.971Z,6.30
2022-12-14T07:31:44.595Z,6.60
2022-12-14T07:36:03.728Z,4.67
2022-12-14T07:40:12.715Z,4.40
2022-12-14T07:44:40.637Z,4.40
2022-12-14T07:48:51.829Z,4.70
2022-12-14T07:53:00.557Z,7.50
2022-12-14T07:57:09.189Z,4.60
2022-12-14T08:01:20.074Z,5.27
2022-12-14T08:05:28.698Z,6.43
2022-12-14T08:09:37.324Z,5.50
2022-12-14T08:13:46.967Z,6.90
2022-12-14T08:17:55.709Z,6.43
2022-12-14T08:22:04.388Z,5.97
2022-12-14T08:26:35.824Z,5.50
2022-12-14T08:30:42.533Z,5.40
2022-12-14T08:34:51.103Z,6.10
2022-12-14T08:39:01.702Z,6.73
2022-12-14T08:43:10.712Z,6.13
2022-12-14T08:47:19.250Z,6.20
2022-12-14T08:51:29.327Z,6.50
2022-12-14T08:55:39.010Z,7.13
2022-12-14T09:00:03.303Z,6.00
2022-12-14T09:03:59.517Z,7.10
2022-12-14T09:08:08.128Z,5.07
2022-12-14T09:12:16.732Z,5.53
2022-12-14T09:16:27.446Z,5.87
2022-12-14T09:20:36.701Z,4.67
2022-12-14T09:24:45.301Z,5.87
2022-12-14T09:29:16.600Z,5.50
2022-12-14T09:33:27.140Z,5.53
2022-12-14T09:37:36.077Z,6.03
2022-12-14T09:41:59.265Z,4.50
2022-12-14T09:46:07.370Z,6.63
2022-12-14T09:50:18.859Z,5.70
2022-12-14T09:59:03.386Z,7.73
2022-12-14T10:03:37.005Z,16.77
2022-12-14T10:08:22.382Z,9.03
2022-12-14T10:12:48.759Z,6.57
2022-12-14T10:17:06.296Z,9.07
2022-12-14T10:21:18.083Z,9.27
2022-12-14T10:25:29.180Z,8.50
2022-12-14T10:29:40.813Z,7.30
2022-12-14T10:34:13.343Z,5.10
2022-12-14T10:38:28.119Z,6.80
2022-12-14T10:42:43.152Z,6.60
2022-12-14T10:46:59.372Z,5.53
2022-12-14T10:51:30.503Z,5.63
2022-12-14T10:55:43.384Z,7.20
2022-12-14T11:00:07.955Z,6.80
2022-12-14T11:04:07.057Z,7.30
2022-12-14T11:08:35.382Z,7.33
2022-12-14T11:13:05.529Z,7.20
2022-12-14T11:17:53.358Z,7.97
2022-12-14T11:22:22.709Z,6.20
2022-12-14T11:26:37.660Z,6.57
2022-12-14T11:31:12.986Z,5.43
2022-12-14T11:35:22.560Z,6.10
2022-12-14T11:39:31.393Z,6.10
2022-12-14T11:43:40.526Z,5.37
2022-12-14T11:47:52.237Z,8.63
2022-12-14T11:52:04.146Z,7.50
2022-12-14T11:56:16.258Z,7.87
2022-12-14T12:00:33.560Z,7.90
2022-12-14T12:04:45.198Z,6.27
2022-12-14T12:08:59.508Z,7.47
2022-12-14T12:13:19.651Z,6.80
2022-12-14T12:17:39.898Z,7.57
2022-12-14T12:21:48.574Z,8.10
2022-12-14T12:25:59.443Z,7.80
2022-12-14T12:30:11.427Z,6.50
2022-12-14T12:34:25.799Z,6.47
2022-12-14T12:38:43.375Z,8.13
2022-12-14T12:42:59.238Z,7.13
2022-12-14T12:47:44.479Z,6.90
2022-12-14T12:51:49.786Z,5.90
2022-12-14T12:56:07.175Z,6.97
2022-12-14T13:00:27.156Z,6.20
2022-12-14T13:04:38.794Z,5.13
2022-12-14T13:08:51.336Z,6.53
2022-12-14T13:13:08.782Z,4.80
2022-12-14T13:17:35.571Z,5.60
2022-12-14T13:22:06.458Z,5.43
2022-12-14T13:26:58.837Z,6.20
2022-12-14T13:31:22.222Z,6.50
2022-12-14T13:35:49.584Z,7.20
2022-12-14T13:40:19.205Z,6.70
2022-12-14T13:44:43.905Z,5.07
2022-12-14T13:48:52.864Z,7.63
2022-12-14T13:53:05.020Z,6.20
2022-12-14T13:57:17.436Z,6.57
2022-12-14T14:01:48.393Z,6.53
2022-12-14T14:06:11.880Z,5.23
2022-12-14T14:10:42.151Z,6.33
2022-12-14T14:15:22.719Z,6.67
2022-12-14T14:19:31.234Z,7.80
2022-12-14T14:23:46.797Z,7.13
2022-12-14T14:27:56.253Z,6.00
2022-12-14T14:32:28.781Z,5.77
2022-12-14T14:36:38.015Z,6.03
2022-12-14T14:41:15.223Z,6.67
2022-12-14T14:45:03.259Z,7.83
2022-12-14T14:49:24.036Z,6.10
2022-12-14T14:53:36.320Z,6.60
2022-12-14T14:58:06.112Z,8.33
2022-12-14T15:02:32.458Z,7.27
2022-12-14T15:06:43.422Z,6.70
2022-12-14T15:11:16.135Z,5.73
2022-12-14T15:15:39.610Z,7.40
2022-12-14T15:19:51.077Z,5.77
2022-12-14T15:23:59.840Z,6.87
2022-12-14T15:28:08.951Z,7.70
2022-12-14T15:32:19.234Z,9.43
2022-12-14T15:36:34.036Z,7.53
2022-12-14T15:40:44.181Z,7.70
2022-12-14T15:44:55.230Z,7.77
2022-12-14T15:49:11.473Z,8.53
2022-12-14T15:53:32.662Z,9.27
2022-12-14T15:57:41.627Z,8.43
2022-12-14T16:01:56.148Z,8.40
2022-12-14T16:06:03.956Z,7.23
2022-12-14T16:10:33.097Z,10.10
2022-12-14T16:14:50.485Z,9.00
2022-12-14T16:19:20.179Z,8.90
2022-12-14T16:23:18.707Z,7.30
2022-12-14T16:27:28.997Z,7.50
2022-12-14T16:31:38.919Z,8.10
2022-12-14T16:35:50.165Z,7.90
2022-12-14T16:39:58.812Z,9.10
2022-12-14T16:44:31.821Z,9.43
2022-12-14T16:48:43.538Z,12.90
2022-12-14T16:53:16.662Z,12.37
2022-12-14T16:57:25.763Z,12.20
2022-12-14T17:01:48.214Z,11.70
2022-12-14T17:06:03.478Z,11.57
2022-12-14T17:10:31.271Z,11.70
2022-12-14T17:14:43.490Z,9.07
2022-12-14T17:18:53.865Z,9.40
2022-12-14T17:23:07.782Z,8.60
2022-12-14T17:27:18.456Z,8.90
2022-12-14T17:31:29.800Z,7.63
2022-12-14T17:35:38.712Z,8.60
2022-12-14T17:39:47.574Z,7.60
2022-12-14T17:43:57.637Z,10.43
2022-12-14T17:48:07.108Z,9.47
2022-12-14T17:52:23.980Z,7.70
2022-12-14T17:56:32.606Z,10.40
2022-12-14T18:00:59.263Z,10.60
2022-12-14T18:05:09.534Z,8.47
2022-12-14T18:09:20.494Z,9.73
2022-12-14T18:13:31.693Z,9.47
2022-12-14T18:17:41.042Z,9.60
2022-12-14T18:21:51.129Z,7.67
2022-12-14T18:26:02.722Z,8.33
2022-12-14T18:30:12.469Z,8.10
2022-12-14T18:34:21.111Z,7.47
2022-12-14T18:38:29.921Z,8.70
2022-12-14T18:42:40.335Z,8.57
2022-12-14T18:46:49.185Z,9.63
2022-12-14T18:50:58.367Z,8.50
2022-12-14T18:55:10.226Z,10.17
2022-12-14T18:59:18.905Z,9.07
2022-12-14T19:03:31.111Z,11.03
2022-12-14T19:07:40.152Z,10.77
2022-12-14T19:11:49.046Z,12.90
2022-12-14T19:15:58.375Z,10.17
2022-12-14T19:20:07.832Z,11.37
2022-12-14T19:24:16.713Z,10.77
2022-12-14T19:28:32.540Z,10.03
2022-12-14T19:32:35.610Z,13.30
2022-12-14T19:36:44.237Z,9.90
2022-12-14T19:41:04.068Z,11.00
2022-12-14T19:45:13.543Z,9.87
2022-12-14T19:49:22.926Z,8.20
2022-12-14T19:53:53.089Z,9.60
2022-12-14T19:58:01.686Z,12.03
2022-12-14T20:02:14.939Z,9.03
2022-12-14T20:06:26.215Z,12.37
2022-12-14T20:10:34.798Z,11.00
2022-12-14T20:14:43.376Z,9.20
2022-12-14T20:18:52.314Z,11.00
2022-12-14T20:23:03.510Z,10.73
2022-12-14T20:27:12.156Z,11.20
2022-12-14T20:31:22.336Z,9.90
2022-12-14T20:35:33.474Z,11.50
2022-12-14T20:39:42.004Z,10.63
2022-12-14T20:43:50.563Z,11.00
2022-12-14T20:47:59.157Z,12.43
2022-12-14T20:52:07.888Z,11.40
2022-12-14T20:56:16.519Z,14.23
2022-12-14T21:00:25.040Z,11.90
2022-12-14T21:04:33.775Z,12.37
2022-12-14T21:09:03.975Z,9.13
2022-12-14T21:13:12.636Z,11.57
2022-12-14T21:17:23.476Z,10.83
2022-12-14T21:21:32.251Z,10.37
2022-12-14T21:25:40.880Z,11.37
2022-12-14T21:29:49.715Z,11.40
2022-12-14T21:33:58.348Z,10.67
2022-12-14T21:38:06.990Z,10.87
2022-12-14T21:42:15.603Z,9.33
2022-12-14T21:46:27.952Z,11.03
2022-12-14T21:50:34.494Z,9.57
2022-12-14T21:54:43.942Z,8.90
2022-12-14T21:58:54.077Z,8.70
2022-12-14T22:03:02.990Z,10.63
2022-12-14T22:07:11.682Z,10.40
2022-12-14T22:11:21.128Z,7.83
2022-12-14T22:15:29.701Z,6.30
2022-12-14T22:19:38.266Z,10.77
2022-12-14T22:23:46.837Z,8.73
2022-12-14T22:27:55.421Z,8.23
2022-12-14T22:32:04.294Z,11.20
2022-12-14T22:36:13.297Z,9.40
2022-12-14T22:40:21.907Z,10.50
2022-12-14T22:44:30.502Z,7.03
2022-12-14T22:48:39.931Z,7.40
2022-12-14T22:52:49.886Z,7.60
2022-12-14T22:57:04.319Z,8.87
2022-12-14T23:01:33.678Z,8.30
2022-12-14T23:05:42.583Z,8.67
2022-12-14T23:14:43.087Z,8.17
2022-12-14T23:19:09.471Z,10.97
2022-12-14T23:23:36.226Z,8.13
2022-12-14T23:28:04.617Z,9.23
2022-12-14T23:32:30.965Z,11.50
2022-12-14T23:37:00.426Z,7.80
2022-12-14T23:41:26.928Z,10.70
2022-12-14T23:45:53.562Z,12.40
2022-12-14T23:50:20.330Z,10.20
2022-12-14T23:59:26.287Z,11.60
